createdAt,value
2018-08-13T00:01:53.963Z,2.92
2018-08-13T00:04:22.407Z,3.27
2018-08-13T00:06:50.862Z,2.90
2018-08-13T00:09:50.941Z,3.15
2018-08-13T00:12:19.369Z,2.92
2018-08-13T00:14:47.830Z,3.15
2018-08-13T00:17:16.258Z,3.40
2018-08-13T00:19:44.780Z,3.40
2018-08-13T00:22:13.275Z,3.50
2018-08-13T00:24:41.823Z,3.50
2018-08-13T00:27:10.339Z,3.80
2018-08-13T00:29:38.852Z,3.58
2018-08-13T00:32:07.361Z,3.40
2018-08-13T00:34:35.860Z,3.58
2018-08-13T00:37:04.370Z,3.50
2018-08-13T00:39:32.849Z,3.47
2018-08-13T00:42:01.367Z,3.85
2018-08-13T00:44:29.859Z,3.50
2018-08-13T00:46:58.338Z,3.73
2018-08-13T00:49:26.846Z,3.60
2018-08-13T00:51:55.314Z,3.72
2018-08-13T00:54:23.831Z,3.63
2018-08-13T00:56:52.289Z,3.30
2018-08-13T00:59:20.780Z,3.33
2018-08-13T01:01:49.263Z,3.87
2018-08-13T01:04:17.787Z,4.60
2018-08-13T01:06:46.273Z,3.90
2018-08-13T01:09:14.846Z,3.40
2018-08-13T01:11:43.343Z,3.30
2018-08-13T01:14:11.824Z,3.60
2018-08-13T01:16:40.311Z,4.10
2018-08-13T01:19:08.827Z,4.20
2018-08-13T01:21:37.335Z,3.77
2018-08-13T01:24:06.327Z,4.33
2018-08-13T01:26:34.798Z,3.93
2018-08-13T01:29:03.330Z,3.97
2018-08-13T01:31:31.760Z,4.20
2018-08-13T01:34:00.228Z,4.10
2018-08-13T01:36:28.675Z,4.27
2018-08-13T01:38:57.138Z,3.70
2018-08-13T01:41:25.594Z,4.70
2018-08-13T01:43:54.075Z,5.10
2018-08-13T01:46:22.515Z,4.93
2018-08-13T01:48:50.945Z,4.83
2018-08-13T01:51:19.407Z,5.00
2018-08-13T01:53:47.837Z,5.10
2018-08-13T01:56:16.299Z,5.23
2018-08-13T01:58:44.707Z,4.70
2018-08-13T02:01:13.277Z,5.10
2018-08-13T02:03:41.677Z,4.97
2018-08-13T02:06:10.155Z,4.70
2018-08-13T02:08:38.585Z,5.37
2018-08-13T02:11:07.049Z,5.20
2018-08-13T02:13:35.485Z,4.67
2018-08-13T02:16:04.014Z,5.40
2018-08-13T02:18:32.483Z,5.17
2018-08-13T02:21:00.990Z,5.27
2018-08-13T02:23:29.428Z,5.40
2018-08-13T02:25:57.932Z,5.70
2018-08-13T02:28:26.391Z,5.17
2018-08-13T02:30:54.906Z,5.27
2018-08-13T02:33:23.429Z,4.80
2018-08-13T02:35:51.868Z,5.63
2018-08-13T02:38:20.334Z,4.80
2018-08-13T02:40:48.848Z,5.00
2018-08-13T02:43:17.403Z,4.63
2018-08-13T02:45:45.857Z,4.47
2018-08-13T02:48:14.356Z,4.97
2018-08-13T02:50:42.833Z,5.00
2018-08-13T02:53:11.292Z,4.70
2018-08-13T02:55:39.739Z,4.80
2018-08-13T02:58:08.256Z,4.37
2018-08-13T03:00:36.702Z,4.80
2018-08-13T03:03:06.277Z,5.00
2018-08-13T03:05:34.761Z,4.93
2018-08-13T03:08:03.233Z,5.13
2018-08-13T03:10:31.714Z,5.20
2018-08-13T03:13:00.166Z,5.07
2018-08-13T03:15:28.650Z,4.67
2018-08-13T03:17:57.104Z,5.80
2018-08-13T03:20:26.105Z,5.17
2018-08-13T03:22:54.567Z,4.83
2018-08-13T03:25:23.398Z,5.07
2018-08-13T03:27:51.827Z,5.43
2018-08-13T03:30:20.318Z,4.60
2018-08-13T03:32:48.748Z,5.07
2018-08-13T03:35:17.203Z,4.77
2018-08-13T03:37:45.664Z,4.47
2018-08-13T03:40:14.227Z,5.03
2018-08-13T03:42:42.691Z,5.20
2018-08-13T03:45:12.242Z,4.77
2018-08-13T03:47:40.829Z,5.20
2018-08-13T03:50:10.701Z,5.10
2018-08-13T03:52:39.168Z,4.50
2018-08-13T03:55:09.217Z,5.53
2018-08-13T03:57:37.719Z,4.70
2018-08-13T04:00:09.600Z,5.10
2018-08-13T04:02:38.097Z,5.50
2018-08-13T04:05:14.263Z,5.53
2018-08-13T04:07:42.841Z,4.87
2018-08-13T04:10:12.462Z,5.30
2018-08-13T04:12:42.199Z,5.40
2018-08-13T04:15:12.095Z,5.33
2018-08-13T04:17:40.596Z,5.70
2018-08-13T04:20:10.786Z,5.63
2018-08-13T04:22:39.258Z,5.20
2018-08-13T04:25:13.871Z,5.37
2018-08-13T04:27:42.839Z,5.30
2018-08-13T04:30:15.606Z,6.40
2018-08-13T04:32:45.109Z,4.80
2018-08-13T04:35:13.640Z,5.50
2018-08-13T04:37:43.107Z,5.20
2018-08-13T04:40:13.491Z,5.03
2018-08-13T04:42:43.095Z,5.43
2018-08-13T04:45:11.700Z,4.73
2018-08-13T04:47:40.703Z,4.83
2018-08-13T04:50:10.588Z,4.90
2018-08-13T04:52:39.057Z,4.57
2018-08-13T04:55:09.086Z,4.60
2018-08-13T04:57:37.561Z,4.90
2018-08-13T05:00:06.756Z,4.00
2018-08-13T05:02:35.263Z,4.20
2018-08-13T05:05:04.756Z,4.08
2018-08-13T05:07:33.235Z,3.87
2018-08-13T05:10:01.660Z,3.83
2018-08-13T05:12:30.138Z,3.90
2018-08-13T05:14:58.579Z,3.50
2018-08-13T05:17:27.086Z,3.15
2018-08-13T05:19:55.621Z,2.95
2018-08-13T05:22:24.115Z,3.52
2018-08-13T05:24:52.617Z,3.02
2018-08-13T05:27:21.125Z,3.20
2018-08-13T05:29:49.633Z,3.35
2018-08-13T05:32:18.148Z,3.45
2018-08-13T05:34:46.670Z,3.62
2018-08-13T05:37:15.184Z,3.65
2018-08-13T05:39:43.666Z,4.12
2018-08-13T05:42:12.213Z,4.00
2018-08-13T05:44:40.707Z,4.12
2018-08-13T05:47:09.193Z,3.67
2018-08-13T05:49:37.671Z,3.77
2018-08-13T05:52:06.218Z,3.92
2018-08-13T05:54:34.754Z,3.65
2018-08-13T05:57:03.221Z,3.27
2018-08-13T05:59:31.735Z,3.58
2018-08-13T06:02:00.215Z,3.80
2018-08-13T06:04:28.764Z,3.95
2018-08-13T06:06:57.383Z,3.27
2018-08-13T06:09:25.877Z,3.30
2018-08-13T06:11:54.359Z,3.37
2018-08-13T06:14:22.821Z,3.15
2018-08-13T06:16:51.326Z,3.52
2018-08-13T06:19:20.202Z,2.87
2018-08-13T06:21:48.701Z,3.47
2018-08-13T06:24:17.364Z,3.40
2018-08-13T06:26:45.891Z,3.47
2018-08-13T06:29:14.435Z,2.70
2018-08-13T06:31:43.219Z,3.25
2018-08-13T06:34:11.757Z,3.65
2018-08-13T06:36:40.295Z,3.17
2018-08-13T06:39:10.087Z,3.25
2018-08-13T06:41:38.558Z,3.25
2018-08-13T06:44:07.114Z,3.50
2018-08-13T06:46:36.344Z,3.45
2018-08-13T06:49:05.243Z,2.58
2018-08-13T06:51:33.839Z,2.60
2018-08-13T06:54:02.343Z,3.33
2018-08-13T06:56:31.148Z,3.50
2018-08-13T06:58:59.636Z,3.12
2018-08-13T07:01:28.263Z,3.30
2018-08-13T07:03:56.768Z,3.80
2018-08-13T07:06:25.258Z,3.35
2018-08-13T07:08:53.815Z,10.38
2018-08-13T07:11:22.334Z,3.40
2018-08-13T07:13:50.879Z,3.58
2018-08-13T07:16:19.358Z,3.12
2018-08-13T07:18:47.917Z,3.33
2018-08-13T07:21:16.431Z,3.65
2018-08-13T07:23:44.929Z,3.10
2018-08-13T07:26:13.387Z,3.20
2018-08-13T07:28:41.956Z,3.05
2018-08-13T07:31:10.455Z,3.22
2018-08-13T07:33:38.920Z,2.80
2018-08-13T07:36:07.488Z,2.90
2018-08-13T07:38:35.979Z,2.90
2018-08-13T07:41:04.486Z,2.85
2018-08-13T07:43:33.035Z,2.80
2018-08-13T07:46:01.544Z,2.85
2018-08-13T07:48:29.993Z,2.52
2018-08-13T07:50:58.515Z,3.17
2018-08-13T07:53:27.046Z,2.40
2018-08-13T07:55:55.612Z,2.45
2018-08-13T07:58:24.124Z,2.75
2018-08-13T08:00:52.767Z,2.83
2018-08-13T08:03:21.235Z,2.58
2018-08-13T08:05:49.831Z,2.47
2018-08-13T08:08:18.391Z,2.62
2018-08-13T08:10:46.991Z,2.77
2018-08-13T08:13:15.474Z,3.17
2018-08-13T08:15:44.107Z,2.58
2018-08-13T08:18:12.573Z,2.52
2018-08-13T08:20:41.150Z,2.60
2018-08-13T08:23:09.679Z,2.42
2018-08-13T08:25:38.231Z,2.50
2018-08-13T08:28:06.738Z,2.25
2018-08-13T08:30:35.375Z,2.42
2018-08-13T08:33:04.803Z,2.92
2018-08-13T08:35:33.518Z,2.40
2018-08-13T08:38:02.067Z,2.52
2018-08-13T08:40:30.745Z,2.65
2018-08-13T08:42:59.294Z,2.62
2018-08-13T08:45:28.098Z,2.72
2018-08-13T08:47:57.240Z,2.52
2018-08-13T08:50:26.569Z,2.50
2018-08-13T08:52:55.193Z,2.40
2018-08-13T08:55:23.751Z,2.70
2018-08-13T08:57:52.310Z,2.40
2018-08-13T09:00:22.786Z,2.58
2018-08-13T09:02:51.627Z,2.85
2018-08-13T09:05:20.330Z,2.90
2018-08-13T09:07:48.995Z,2.33
2018-08-13T09:10:17.630Z,2.33
2018-08-13T09:12:46.206Z,2.58
2018-08-13T09:15:16.332Z,2.75
2018-08-13T09:17:56.972Z,2.52
2018-08-13T09:20:36.724Z,2.60
2018-08-13T09:23:16.271Z,2.33
2018-08-13T09:25:56.007Z,2.30
2018-08-13T09:29:37.151Z,1.92
2018-08-13T09:32:19.998Z,2.20
2018-08-13T09:35:26.457Z,2.12
2018-08-13T09:37:55.736Z,1.90
2018-08-13T09:40:24.738Z,1.90
2018-08-13T09:42:53.296Z,1.90
2018-08-13T09:45:21.803Z,1.70
2018-08-13T09:47:50.307Z,2.10
2018-08-13T09:50:19.507Z,1.72
2018-08-13T09:52:48.604Z,1.72
2018-08-13T09:55:17.674Z,1.70
2018-08-13T09:57:47.081Z,1.75
2018-08-13T10:00:23.377Z,2.05
2018-08-13T10:02:51.783Z,1.75
2018-08-13T10:05:20.302Z,2.00
2018-08-13T10:07:48.787Z,1.45
2018-08-13T10:10:17.882Z,2.02
2018-08-13T10:12:46.674Z,2.25
2018-08-13T10:15:15.340Z,2.20
2018-08-13T10:17:43.908Z,2.30
2018-08-13T10:20:18.304Z,2.27
2018-08-13T10:22:47.039Z,2.10
2018-08-13T10:25:15.676Z,2.08
2018-08-13T10:27:44.231Z,2.20
2018-08-13T10:30:14.659Z,2.60
2018-08-13T10:32:43.269Z,2.20
2018-08-13T10:35:11.787Z,2.27
2018-08-13T10:37:41.022Z,1.90
2018-08-13T10:40:11.569Z,2.25
2018-08-13T10:42:40.112Z,1.87
2018-08-13T10:45:08.972Z,1.98
2018-08-13T10:47:37.478Z,1.90
2018-08-13T10:50:07.294Z,2.20
2018-08-13T10:52:35.810Z,1.95
2018-08-13T10:55:04.642Z,2.10
2018-08-13T10:57:33.128Z,1.80
2018-08-13T11:00:01.724Z,2.22
2018-08-13T11:02:30.229Z,2.17
2018-08-13T11:04:58.718Z,2.15
2018-08-13T11:07:27.203Z,2.30
2018-08-13T11:09:55.736Z,2.17
2018-08-13T11:12:24.220Z,2.10
2018-08-13T11:14:52.707Z,1.95
2018-08-13T11:17:21.254Z,2.30
2018-08-13T11:19:49.730Z,1.90
2018-08-13T11:22:18.617Z,1.90
2018-08-13T11:24:47.338Z,2.00
2018-08-13T11:27:15.950Z,1.70
2018-08-13T11:29:45.838Z,1.70
2018-08-13T11:32:14.284Z,1.75
2018-08-13T11:34:43.114Z,1.90
2018-08-13T11:37:11.595Z,1.82
2018-08-13T11:39:40.335Z,1.85
2018-08-13T11:42:08.829Z,2.22
2018-08-13T11:44:37.321Z,1.85
2018-08-13T11:47:05.773Z,2.30
2018-08-13T11:49:34.302Z,1.77
2018-08-13T11:52:02.815Z,2.30
2018-08-13T11:54:31.296Z,1.82
2018-08-13T11:56:59.727Z,2.20
2018-08-13T11:59:28.807Z,1.85
2018-08-13T12:01:57.332Z,2.15
2018-08-13T12:04:25.801Z,2.08
2018-08-13T12:06:54.287Z,1.98
2018-08-13T12:09:22.898Z,1.90
2018-08-13T12:11:51.427Z,4.47
2018-08-13T12:14:19.893Z,2.10
2018-08-13T12:16:48.384Z,2.65
2018-08-13T12:19:16.866Z,1.90
2018-08-13T12:21:45.415Z,2.22
2018-08-13T12:24:13.922Z,2.25
2018-08-13T12:26:42.439Z,2.20
2018-08-13T12:29:10.943Z,1.92
2018-08-13T12:31:39.445Z,2.10
2018-08-13T12:34:07.946Z,2.17
2018-08-13T12:36:36.473Z,2.15
2018-08-13T12:39:08.719Z,2.47
2018-08-13T12:41:37.321Z,2.22
2018-08-13T12:44:05.960Z,1.98
2018-08-13T12:46:34.458Z,2.60
2018-08-13T12:49:02.938Z,2.22
2018-08-13T12:51:31.443Z,2.87
2018-08-13T12:53:59.996Z,2.50
2018-08-13T12:56:28.601Z,2.60
2018-08-13T12:58:57.324Z,2.58
2018-08-13T13:01:25.920Z,2.58
2018-08-13T13:03:54.960Z,2.30
2018-08-13T13:06:23.527Z,2.65
2018-08-13T13:08:52.062Z,2.10
2018-08-13T13:11:20.592Z,2.08
2018-08-13T13:13:49.107Z,2.30
2018-08-13T13:16:17.601Z,2.47
2018-08-13T13:18:46.288Z,2.25
2018-08-13T13:21:14.933Z,2.37
2018-08-13T13:23:43.402Z,2.33
2018-08-13T13:26:11.916Z,2.70
2018-08-13T13:28:41.086Z,2.25
2018-08-13T13:31:09.872Z,2.10
2018-08-13T13:33:38.444Z,1.60
2018-08-13T13:36:07.296Z,1.75
2018-08-13T13:38:35.783Z,1.32
2018-08-13T13:41:04.412Z,1.80
2018-08-13T13:43:33.271Z,1.30
2018-08-13T13:46:01.920Z,1.52
2018-08-13T13:48:30.374Z,1.67
2018-08-13T13:50:58.908Z,1.50
2018-08-13T13:53:28.103Z,1.60
2018-08-13T13:55:56.663Z,1.45
2018-08-13T13:58:25.243Z,1.50
2018-08-13T14:00:53.859Z,2.00
2018-08-13T14:03:22.363Z,1.80
2018-08-13T14:05:50.930Z,1.67
2018-08-13T14:08:19.366Z,1.70
2018-08-13T14:10:47.997Z,1.65
2018-08-13T14:13:16.514Z,1.50
2018-08-13T14:15:45.046Z,1.62
2018-08-13T14:18:13.566Z,1.80
2018-08-13T14:20:42.096Z,1.52
2018-08-13T14:23:10.799Z,4.90
2018-08-13T14:25:39.366Z,1.65
2018-08-13T14:28:07.909Z,1.55
2018-08-13T14:30:36.504Z,1.50
2018-08-13T14:33:05.036Z,1.62
2018-08-13T14:35:33.529Z,1.50
2018-08-13T14:38:02.081Z,1.60
2018-08-13T14:40:30.531Z,1.50
2018-08-13T14:42:59.023Z,1.60
2018-08-13T14:45:27.536Z,1.57
2018-08-13T14:47:56.051Z,1.10
2018-08-13T14:50:24.566Z,1.67
2018-08-13T14:52:53.098Z,1.27
2018-08-13T14:55:22.413Z,1.35
2018-08-13T14:57:50.970Z,1.42
2018-08-13T15:00:23.494Z,1.40
2018-08-13T15:02:52.665Z,1.55
2018-08-13T15:05:21.180Z,1.62
2018-08-13T15:07:49.726Z,1.75
2018-08-13T15:10:20.920Z,1.85
2018-08-13T15:12:49.477Z,1.67
2018-08-13T15:15:17.994Z,1.72
2018-08-13T15:17:46.590Z,1.80
2018-08-13T15:20:24.414Z,1.57
2018-08-13T15:22:53.052Z,1.50
2018-08-13T15:25:21.650Z,1.82
2018-08-13T15:27:50.218Z,2.60
2018-08-13T15:30:19.506Z,2.12
2018-08-13T15:32:48.847Z,1.60
2018-08-13T15:35:17.427Z,4.10
2018-08-13T15:37:47.026Z,2.02
2018-08-13T15:40:15.662Z,1.85
2018-08-13T15:42:44.137Z,2.15
2018-08-13T15:45:14.704Z,1.70
2018-08-13T15:47:43.261Z,2.08
2018-08-13T15:50:13.440Z,2.50
2018-08-13T15:52:42.362Z,2.12
2018-08-13T15:55:11.032Z,2.62
2018-08-13T15:57:39.999Z,2.27
2018-08-13T16:00:10.115Z,2.80
2018-08-13T16:02:38.598Z,3.12
2018-08-13T16:05:08.401Z,2.75
2018-08-13T16:07:36.910Z,3.25
2018-08-13T16:10:07.783Z,3.37
2018-08-13T16:12:36.425Z,3.40
2018-08-13T16:15:05.783Z,4.37
2018-08-13T16:17:34.494Z,4.22
2018-08-13T16:20:03.216Z,3.80
2018-08-13T16:22:31.685Z,4.28
2018-08-13T16:25:00.134Z,4.12
2018-08-13T16:27:28.616Z,17.87
2018-08-13T16:29:57.131Z,9.00
2018-08-13T16:32:26.291Z,5.22
2018-08-13T16:34:54.820Z,5.05
2018-08-13T16:37:23.573Z,4.58
2018-08-13T16:39:52.054Z,4.70
2018-08-13T16:42:20.600Z,4.85
2018-08-13T16:44:49.663Z,4.58
2018-08-13T16:47:18.443Z,4.60
2018-08-13T16:49:47.638Z,5.12
2018-08-13T16:52:16.375Z,4.65
2018-08-13T16:54:45.188Z,4.78
2018-08-13T16:57:13.682Z,4.87
2018-08-13T16:59:42.590Z,5.25
2018-08-13T17:02:11.103Z,5.00
2018-08-13T17:04:39.967Z,5.17
2018-08-13T17:07:08.547Z,4.87
2018-08-13T17:09:37.387Z,5.12
2018-08-13T17:12:05.971Z,4.70
2018-08-13T17:14:35.205Z,5.53
2018-08-13T17:17:04.157Z,4.47
2018-08-13T17:19:33.103Z,4.92
2018-08-13T17:22:02.180Z,4.85
2018-08-13T17:24:30.686Z,5.03
2018-08-13T17:26:59.600Z,4.95
2018-08-13T17:29:28.127Z,4.75
2018-08-13T17:31:56.667Z,5.30
2018-08-13T17:34:25.441Z,5.00
2018-08-13T17:36:54.449Z,5.50
2018-08-13T17:39:23.679Z,5.62
2018-08-13T17:41:52.370Z,11.80
2018-08-13T17:44:21.334Z,11.18
2018-08-13T17:46:50.095Z,5.22
2018-08-13T17:49:18.949Z,4.90
2018-08-13T17:51:47.919Z,5.17
2018-08-13T17:54:16.549Z,4.78
2018-08-13T17:56:45.347Z,5.17
2018-08-13T17:59:14.914Z,4.90
2018-08-13T18:01:44.526Z,5.08
2018-08-13T18:04:12.976Z,5.62
2018-08-13T18:06:41.715Z,4.50
2018-08-13T18:09:12.052Z,5.50
2018-08-13T18:11:41.252Z,5.78
2018-08-13T18:14:09.891Z,5.70
2018-08-13T18:16:38.593Z,5.72
2018-08-13T18:19:07.469Z,5.58
2018-08-13T18:21:36.207Z,5.83
2018-08-13T18:24:05.919Z,5.80
2018-08-13T18:26:34.967Z,6.30
2018-08-13T18:29:04.119Z,7.30
2018-08-13T18:31:32.674Z,6.80
2018-08-13T18:34:01.249Z,6.65
2018-08-13T18:36:29.869Z,7.70
2018-08-13T18:38:58.406Z,6.75
2018-08-13T18:41:27.024Z,6.67
2018-08-13T18:43:55.610Z,6.62
2018-08-13T18:46:24.154Z,6.83
2018-08-13T18:48:52.686Z,6.10
2018-08-13T18:51:21.180Z,6.42
2018-08-13T18:53:49.671Z,6.05
2018-08-13T18:56:18.251Z,6.62
2018-08-13T18:58:47.195Z,6.70
2018-08-13T19:01:15.698Z,6.72
2018-08-13T19:03:44.302Z,7.15
2018-08-13T19:06:12.920Z,7.37
2018-08-13T19:08:41.472Z,7.95
2018-08-13T19:11:10.051Z,6.42
2018-08-13T19:13:38.556Z,6.97
2018-08-13T19:16:07.202Z,7.62
2018-08-13T19:18:35.700Z,7.17
2018-08-13T19:21:04.250Z,7.78
2018-08-13T19:23:32.832Z,7.35
2018-08-13T19:26:01.327Z,8.35
2018-08-13T19:28:29.803Z,7.40
2018-08-13T19:30:58.278Z,7.05
2018-08-13T19:33:26.752Z,7.35
2018-08-13T19:35:55.253Z,8.15
2018-08-13T19:38:23.740Z,7.75
2018-08-13T19:40:52.240Z,8.35
2018-08-13T19:43:20.762Z,7.72
2018-08-13T19:45:49.268Z,7.45
2018-08-13T19:48:17.754Z,8.35
2018-08-13T19:50:46.255Z,48.85
2018-08-13T19:53:14.827Z,24.05
2018-08-13T19:55:43.450Z,10.05
2018-08-13T19:58:11.862Z,8.88
2018-08-13T20:00:40.340Z,8.10
2018-08-13T20:03:13.304Z,8.73
2018-08-13T20:05:42.358Z,8.63
2018-08-13T20:08:10.964Z,8.00
2018-08-13T20:10:39.441Z,8.50
2018-08-13T20:13:07.960Z,8.08
2018-08-13T20:15:36.527Z,7.75
2018-08-13T20:18:05.448Z,8.10
2018-08-13T20:20:34.048Z,8.68
2018-08-13T20:23:02.527Z,8.30
2018-08-13T20:25:31.084Z,8.48
2018-08-13T20:27:59.714Z,8.50
2018-08-13T20:30:28.213Z,8.03
2018-08-13T20:32:56.710Z,8.18
2018-08-13T20:35:25.221Z,8.35
2018-08-13T20:37:53.735Z,8.03
2018-08-13T20:40:22.282Z,7.40
2018-08-13T20:42:51.023Z,7.85
2018-08-13T20:45:21.301Z,7.33
2018-08-13T20:47:49.845Z,7.72
2018-08-13T20:50:23.403Z,7.30
2018-08-13T20:52:52.691Z,7.25
2018-08-13T20:55:27.863Z,7.90
2018-08-13T20:57:56.391Z,7.97
2018-08-13T21:00:26.720Z,8.00
2018-08-13T21:02:55.237Z,8.93
2018-08-13T21:05:23.694Z,8.90
2018-08-13T21:07:52.219Z,9.20
2018-08-13T21:10:23.266Z,9.65
2018-08-13T21:12:52.062Z,9.63
2018-08-13T21:15:20.593Z,9.60
2018-08-13T21:17:49.147Z,10.68
2018-08-13T21:20:27.971Z,9.50
2018-08-13T21:22:56.707Z,10.20
2018-08-13T21:25:25.326Z,10.28
2018-08-13T21:27:53.889Z,10.95
2018-08-13T21:30:22.357Z,9.40
2018-08-13T21:32:50.865Z,11.05
2018-08-13T21:35:21.790Z,10.13
2018-08-13T21:37:50.475Z,9.48
2018-08-13T21:40:19.014Z,10.28
2018-08-13T21:42:48.006Z,10.72
2018-08-13T21:45:16.458Z,11.12
2018-08-13T21:47:45.011Z,10.58
2018-08-13T21:50:16.986Z,11.48
2018-08-13T21:52:46.258Z,11.97
2018-08-13T21:55:14.750Z,11.75
2018-08-13T21:57:43.242Z,11.75
2018-08-13T22:00:29.533Z,12.28
2018-08-13T22:03:02.318Z,11.25
2018-08-13T22:05:30.877Z,12.00
2018-08-13T22:07:59.607Z,10.72
2018-08-13T22:10:28.148Z,10.90
2018-08-13T22:12:56.720Z,10.85
2018-08-13T22:15:28.636Z,11.70
2018-08-13T22:17:58.748Z,11.90
2018-08-13T22:20:27.574Z,11.43
2018-08-13T22:22:57.281Z,11.88
2018-08-13T22:25:28.571Z,11.63
2018-08-13T22:27:57.121Z,12.20
2018-08-13T22:30:25.682Z,12.40
2018-08-13T22:32:54.190Z,12.25
2018-08-13T22:35:22.711Z,12.23
2018-08-13T22:37:51.282Z,11.65
2018-08-13T22:40:20.837Z,13.75
2018-08-13T22:42:49.365Z,11.90
2018-08-13T22:45:26.044Z,12.03
2018-08-13T22:47:54.555Z,12.60
2018-08-13T22:50:23.061Z,13.95
2018-08-13T22:52:51.568Z,12.45
2018-08-13T22:55:20.096Z,14.65
2018-08-13T22:57:48.852Z,12.33
2018-08-13T23:00:18.547Z,12.15
2018-08-13T23:02:47.880Z,12.35
2018-08-13T23:05:19.183Z,10.93
2018-08-13T23:07:47.719Z,14.50
2018-08-13T23:10:17.596Z,14.85
2018-08-13T23:12:47.106Z,12.98
2018-08-13T23:15:16.298Z,13.08
2018-08-13T23:17:45.145Z,13.58
2018-08-13T23:20:22.316Z,14.80
2018-08-13T23:22:56.011Z,15.18
2018-08-13T23:25:25.119Z,14.90
2018-08-13T23:27:54.922Z,14.65
2018-08-13T23:30:23.507Z,13.40
2018-08-13T23:32:53.454Z,15.80
2018-08-13T23:35:22.804Z,14.10
2018-08-13T23:37:51.650Z,13.05
2018-08-13T23:40:20.196Z,13.58
2018-08-13T23:42:48.744Z,13.62
2018-08-13T23:45:18.752Z,13.85
2018-08-13T23:47:47.439Z,15.13
2018-08-13T23:50:19.802Z,14.10
2018-08-13T23:52:49.735Z,15.48
2018-08-13T23:55:23.352Z,17.15
2018-08-13T23:57:51.882Z,16.00
